Time;durP1;ratioP1;P1;durP2;ratioP2;P2;SDS_P1;SDS_P2;PMS_P1;PMS_P2;Temp;Humidity;BMP_temperature;BMP_pressure;BME280_temperature;BME280_humidity;BME280_pressure;Samples;Min_cycle;Max_cycle;Signal;HPM_P1;HPM_P2
2023/06/29 00:06:19;;;;;;;6.07;4.60;;;;;;;16.41;65.91;101262.50;15679504;28;20104;-49
2023/06/29 00:13:56;;;;;;;8.30;4.90;;;;;;;16.36;65.97;101262.41;15663037;28;20036;-51
2023/06/29 00:21:31;;;;;;;8.10;4.35;;;;;;;16.20;66.74;101256.63;15658554;28;20488;-47
2023/06/29 00:29:05;;;;;;;8.38;5.28;;;;;;;16.19;66.34;101254.16;15659565;28;20461;-47
2023/06/29 00:36:42;;;;;;;11.48;4.80;;;;;;;16.03;66.96;101242.13;15654872;28;20151;-47
2023/06/29 00:44:16;;;;;;;7.72;5.30;;;;;;;15.80;67.38;101243.72;15654488;28;20072;-51
2023/06/29 00:51:51;;;;;;;10.93;5.57;;;;;;;15.85;67.19;101234.09;15650616;28;20044;-49
2023/06/29 00:59:26;;;;;;;10.25;5.13;;;;;;;15.51;68.37;101229.16;15654505;28;20444;-51
2023/06/29 01:07:07;;;;;;;9.60;5.25;;;;;;;15.69;67.64;101219.38;15657532;28;20466;-49
2023/06/29 01:14:44;;;;;;;6.55;5.10;;;;;;;15.60;67.51;101216.13;15678310;28;20048;-50
2023/06/29 01:22:21;;;;;;;12.80;5.30;;;;;;;15.61;67.57;101216.97;15670974;28;20429;-48
2023/06/29 01:30:00;;;;;;;6.22;4.82;;;;;;;15.47;68.17;101205.50;15656997;28;20066;-48
2023/06/29 01:37:41;;;;;;;6.70;5.47;;;;;;;15.41;68.21;101201.03;15652013;28;20053;-47
2023/06/29 01:45:21;;;;;;;77.43;71.03;;;;;;;15.38;68.28;101207.72;15636995;28;20155;-45
2023/06/29 01:52:56;;;;;;;7.78;5.20;;;;;;;15.32;68.21;101198.66;15666656;28;20041;-46
2023/06/29 02:00:30;;;;;;;7.25;6.18;;;;;;;15.30;67.80;101192.66;15655289;28;20466;-48
2023/06/29 02:08:03;;;;;;;13.13;6.40;;;;;;;15.15;68.39;101196.81;15673284;28;20100;-51
2023/06/29 02:15:38;;;;;;;9.52;6.53;;;;;;;15.20;68.07;101196.94;15642483;28;20389;-50
2023/06/29 02:23:12;;;;;;;38.28;7.60;;;;;;;15.18;68.16;101201.78;15659064;28;20417;-50
2023/06/29 02:30:46;;;;;;;37.83;7.67;;;;;;;14.99;68.38;101204.50;15667853;28;20466;-51
2023/06/29 02:38:19;;;;;;;38.90;7.60;;;;;;;14.86;68.63;101207.38;15662589;28;20695;-47
2023/06/29 02:45:53;;;;;;;9.90;7.20;;;;;;;14.72;68.92;101203.19;15663321;28;20041;-50
2023/06/29 02:53:26;;;;;;;9.32;7.07;;;;;;;14.85;68.51;101202.22;15661295;28;20075;-49
2023/06/29 03:01:01;;;;;;;9.20;7.25;;;;;;;14.70;68.81;101210.72;15643697;28;20486;-48
2023/06/29 03:08:34;;;;;;;13.57;7.22;;;;;;;14.61;69.32;101207.50;15651825;28;20048;-47
2023/06/29 03:16:09;;;;;;;9.70;7.75;;;;;;;14.69;69.24;101212.59;15660996;28;20044;-48
2023/06/29 03:23:42;;;;;;;10.45;7.25;;;;;;;14.12;71.24;101203.81;15665514;28;20052;-46
2023/06/29 03:31:16;;;;;;;7.90;7.10;;;;;;;13.87;72.89;101216.50;15660160;28;20057;-49
2023/06/29 03:38:49;;;;;;;8.88;7.97;;;;;;;14.67;71.42;101214.69;15659399;28;20107;-49
2023/06/29 03:46:23;;;;;;;11.90;8.73;;;;;;;15.15;70.69;101210.34;15658198;28;20045;-50
2023/06/29 03:53:56;;;;;;;12.20;8.00;;;;;;;15.26;70.25;101210.41;15657048;28;20493;-49
2023/06/29 04:01:31;;;;;;;9.57;8.20;;;;;;;15.45;70.65;101215.75;15673713;28;20045;-52
2023/06/29 04:09:04;;;;;;;12.05;8.07;;;;;;;15.62;70.66;101213.19;15665165;28;20136;-53
2023/06/29 04:16:38;;;;;;;9.85;7.93;;;;;;;16.23;69.00;101202.00;15674135;28;20047;-52
2023/06/29 04:24:11;;;;;;;13.18;7.80;;;;;;;16.53;67.57;101203.72;15662446;28;20052;-53
2023/06/29 04:31:45;;;;;;;16.25;8.60;;;;;;;16.46;69.28;101211.13;15655779;28;20041;-48
2023/06/29 04:39:19;;;;;;;10.88;7.70;;;;;;;16.31;69.89;101211.63;15668874;28;20041;-50
2023/06/29 04:46:55;;;;;;;11.48;7.85;;;;;;;16.59;68.81;101208.19;15652949;28;20120;-54
2023/06/29 04:54:28;;;;;;;10.00;7.32;;;;;;;17.15;67.86;101190.34;15653420;28;20179;-53
2023/06/29 05:02:03;;;;;;;9.63;7.57;;;;;;;17.26;67.19;101194.91;15652959;28;20060;-50
2023/06/29 05:09:37;;;;;;;11.30;7.78;;;;;;;17.21;68.51;101191.28;15659205;28;20059;-54
2023/06/29 05:17:11;;;;;;;11.55;7.57;;;;;;;17.15;69.39;101193.06;15651066;28;20033;-46
2023/06/29 05:24:44;;;;;;;10.40;7.72;;;;;;;17.65;67.76;101192.31;15671456;28;20411;-51
2023/06/29 05:32:19;;;;;;;11.05;7.20;;;;;;;17.85;66.71;101141.06;15671573;28;20056;-48
2023/06/29 05:39:52;;;;;;;12.88;7.35;;;;;;;18.51;64.92;101190.13;15629393;28;20041;-50
2023/06/29 05:47:27;;;;;;;10.77;6.70;;;;;;;18.88;64.32;101196.81;15664639;28;20074;-53
2023/06/29 05:55:01;;;;;;;11.80;6.63;;;;;;;19.10;63.03;101197.63;15652983;28;20045;-54
2023/06/29 06:02:37;;;;;;;12.48;6.28;;;;;;;19.24;63.93;101196.13;15671217;28;20565;-50
2023/06/29 06:10:10;;;;;;;12.63;6.18;;;;;;;19.34;62.09;101198.94;15676753;28;20092;-54
2023/06/29 06:17:44;;;;;;;9.43;5.60;;;;;;;19.51;62.40;101200.75;15684891;28;20446;-55
2023/06/29 06:25:18;;;;;;;11.75;5.55;;;;;;;19.29;63.86;101200.81;15688442;28;20136;-52
2023/06/29 06:32:52;;;;;;;9.45;5.53;;;;;;;19.88;61.22;101204.38;15664129;28;20127;-53
2023/06/29 06:40:25;;;;;;;9.07;4.75;;;;;;;20.12;61.65;101204.00;15665556;28;20422;-55
2023/06/29 06:47:59;;;;;;;;;;;;;;;20.08;60.98;101205.59;15679355;28;20057;-54
2023/06/29 06:55:31;;;;;;;7.82;4.40;;;;;;;20.31;60.49;101205.19;15678989;28;19921;-55
2023/06/29 07:03:06;;;;;;;8.30;4.38;;;;;;;20.13;59.72;101197.44;15666579;28;20064;-55
2023/06/29 07:10:39;;;;;;;25.83;5.45;;;;;;;20.16;59.36;101190.66;15689281;28;20040;-48
2023/06/29 07:18:14;;;;;;;6.95;4.45;;;;;;;20.34;60.28;101206.59;15674009;28;20519;-52
2023/06/29 07:25:47;;;;;;;11.43;5.15;;;;;;;20.45;60.99;101196.53;15685272;28;20032;-56
2023/06/29 07:33:21;;;;;;;;;;;;;;;20.29;61.33;101184.75;15645033;28;20052;-56
2023/06/29 07:40:53;;;;;;;7.20;4.20;;;;;;;20.93;59.32;101186.41;15680642;28;19950;-54
2023/06/29 07:48:28;;;;;;;6.47;4.15;;;;;;;20.77;58.71;101183.63;15657371;28;20060;-52
2023/06/29 07:56:01;;;;;;;7.22;3.50;;;;;;;21.30;57.57;101176.09;15675153;28;20523;-55
2023/06/29 08:03:36;;;;;;;7.43;4.18;;;;;;;21.00;56.26;101182.34;15681769;28;20198;-50
2023/06/29 08:11:12;;;;;;;8.35;4.55;;;;;;;21.13;56.79;101159.16;15683206;28;20128;-55
2023/06/29 08:18:46;;;;;;;7.28;4.63;;;;;;;21.29;56.21;101182.66;15663556;28;20097;-55
2023/06/29 08:26:19;;;;;;;7.20;4.38;;;;;;;21.32;55.25;101173.97;15661099;28;20063;-54
2023/06/29 08:33:53;;;;;;;8.55;4.63;;;;;;;21.44;55.55;101173.69;15658659;28;20037;-55
2023/06/29 08:41:26;;;;;;;10.00;4.95;;;;;;;21.67;54.97;101169.59;15655655;28;20045;-57
2023/06/29 08:49:08;;;;;;;7.53;5.10;;;;;;;21.70;54.30;101154.59;15953577;27;20387;-56
2023/06/29 08:56:41;;;;;;;6.55;4.00;;;;;;;22.10;53.14;101164.63;15907067;28;20142;-55
2023/06/29 09:04:15;;;;;;;7.35;3.67;;;;;;;22.71;51.96;101160.88;15885349;28;20046;-55
2023/06/29 09:11:49;;;;;;;6.88;3.60;;;;;;;22.53;51.23;101160.44;15902207;28;20130;-54
2023/06/29 09:19:26;;;;;;;7.15;3.00;;;;;;;22.70;50.91;101156.50;15890089;28;20515;-52
2023/06/29 09:27:01;;;;;;;5.35;2.83;;;;;;;23.06;48.92;101148.94;15902510;28;20059;-53
2023/06/29 09:34:45;;;;;;;4.30;2.78;;;;;;;23.37;47.81;101135.88;15904945;22;20070;-50
2023/06/29 09:42:19;;;;;;;5.77;2.70;;;;;;;22.63;48.23;101143.16;15838581;28;20047;-48
2023/06/29 09:49:54;;;;;;;5.10;3.15;;;;;;;23.08;47.67;101135.78;15857682;28;20723;-51
2023/06/29 09:57:28;;;;;;;6.78;2.80;;;;;;;23.38;47.00;101129.28;15825348;28;20048;-47
2023/06/29 10:05:03;;;;;;;7.38;2.58;;;;;;;23.51;46.85;101122.31;15807202;28;20036;-48
2023/06/29 10:12:39;;;;;;;5.20;2.80;;;;;;;24.14;45.63;101112.09;15789231;28;20040;-46
2023/06/29 10:20:15;;;;;;;6.45;2.78;;;;;;;24.78;43.83;101109.94;15795036;28;20062;-50
2023/06/29 10:27:51;;;;;;;5.28;2.35;;;;;;;25.49;43.30;101097.00;15805902;28;20623;-51
2023/06/29 10:35:26;;;;;;;6.07;2.65;;;;;;;24.93;42.87;101095.97;15805604;28;20096;-52
2023/06/29 10:42:59;;;;;;;6.53;2.40;;;;;;;25.81;43.61;101082.44;15805013;28;20401;-47
2023/06/29 10:50:37;;;;;;;7.68;2.67;;;;;;;25.31;42.88;101075.88;15810752;28;20105;-47
2023/06/29 10:58:22;;;;;;;4.82;2.22;;;;;;;25.82;43.25;101078.56;15785771;28;20467;-46
2023/06/29 11:05:58;;;;;;;4.38;2.40;;;;;;;24.55;43.99;101069.63;15802145;28;20123;-47
2023/06/29 11:13:32;;;;;;;5.60;2.90;;;;;;;25.57;41.82;101063.34;15803807;28;20040;-47
2023/06/29 11:21:07;;;;;;;5.80;2.60;;;;;;;25.14;45.19;101054.50;15792343;28;20059;-46
2023/06/29 11:28:39;;;;;;;4.88;2.92;;;;;;;25.43;43.85;101033.06;15802588;28;20404;-46
2023/06/29 11:36:14;;;;;;;4.00;2.90;;;;;;;26.51;39.79;101041.94;15787618;28;20048;-47
2023/06/29 11:43:51;;;;;;;4.10;3.13;;;;;;;26.10;42.18;101034.53;15782533;28;20044;-51
2023/06/29 11:51:28;;;;;;;7.70;3.10;;;;;;;25.31;43.07;101029.19;15808803;28;20043;-50
2023/06/29 11:59:05;;;;;;;5.32;3.00;;;;;;;26.18;41.78;101018.13;15801679;28;20090;-46
2023/06/29 12:06:50;;;;;;;9.18;3.10;;;;;;;26.23;42.58;101008.13;15801576;28;20054;-48
2023/06/29 12:14:27;;;;;;;6.30;2.75;;;;;;;25.96;43.03;100998.78;15781656;28;20117;-50
2023/06/29 12:22:01;;;;;;;7.57;3.05;;;;;;;26.39;41.97;100992.91;15799007;28;20044;-50
2023/06/29 12:29:34;;;;;;;3.72;2.70;;;;;;;26.83;41.49;100994.09;15781007;28;20044;-48
2023/06/29 12:37:08;;;;;;;4.30;2.70;;;;;;;26.23;42.08;100986.94;15798442;28;20123;-48
2023/06/29 12:44:41;;;;;;;5.90;2.53;;;;;;;25.97;42.22;100980.34;15798583;28;20044;-49
2023/06/29 12:52:19;;;;;;;6.97;2.95;;;;;;;26.22;40.54;100976.25;15791318;28;20499;-52
2023/06/29 12:59:54;;;;;;;5.32;2.70;;;;;;;26.42;40.60;100975.78;15798117;28;20044;-50
2023/06/29 13:07:28;;;;;;;5.60;2.60;;;;;;;26.22;42.26;100966.06;15797325;28;20058;-48
2023/06/29 13:15:10;;;;;;;6.50;2.30;;;;;;;26.80;39.65;100954.22;15780364;28;20116;-50
2023/06/29 13:22:46;;;;;;;7.07;2.20;;;;;;;26.62;40.25;100942.25;15797248;28;20050;-49
2023/06/29 13:30:19;;;;;;;9.50;2.10;;;;;;;26.82;41.87;100945.66;15800108;28;20048;-46
2023/06/29 13:37:53;;;;;;;3.45;2.13;;;;;;;26.52;41.41;100937.00;15808611;28;20044;-48
2023/06/29 13:45:27;;;;;;;3.75;2.22;;;;;;;27.07;38.14;100933.97;15808165;28;20040;-47
2023/06/29 13:53:02;;;;;;;5.18;2.00;;;;;;;26.47;38.57;100922.56;15800230;28;20052;-54
2023/06/29 14:00:35;;;;;;;6.20;2.35;;;;;;;26.14;40.07;100915.31;15808779;28;20139;-51
2023/06/29 14:08:11;;;;;;;4.85;2.20;;;;;;;26.92;40.35;100910.38;15807628;28;20040;-52
2023/06/29 14:15:44;;;;;;;4.55;2.25;;;;;;;26.51;40.15;100902.34;15808013;28;20408;-48
2023/06/29 14:23:18;;;;;;;3.67;2.13;;;;;;;27.10;41.15;100886.53;15796150;28;20400;-49
2023/06/29 14:30:51;;;;;;;3.03;2.00;;;;;;;27.31;38.03;100891.44;15788143;28;20055;-53
2023/06/29 14:38:25;;;;;;;4.00;2.08;;;;;;;26.66;40.98;100885.44;15805524;28;20091;-48
2023/06/29 14:45:58;;;;;;;4.35;2.30;;;;;;;27.57;37.58;100869.47;15788132;28;20051;-50
2023/06/29 14:53:33;;;;;;;5.18;2.00;;;;;;;27.65;38.74;100854.88;15796869;28;20044;-48
2023/06/29 15:01:06;;;;;;;4.50;2.08;;;;;;;27.15;39.20;100860.75;15786368;28;20131;-52
2023/06/29 15:08:40;;;;;;;4.10;2.20;;;;;;;27.28;39.04;100842.47;15796821;28;20093;-51
2023/06/29 15:16:13;;;;;;;4.47;2.03;;;;;;;27.37;40.15;100843.31;15788160;28;20044;-50
2023/06/29 15:23:48;;;;;;;12.48;2.78;;;;;;;27.10;42.40;100836.13;15787039;28;20028;-49
2023/06/29 15:31:20;;;;;;;4.88;2.22;;;;;;;27.05;40.81;100827.97;15802184;28;20470;-51
2023/06/29 15:38:55;;;;;;;4.90;2.28;;;;;;;27.03;38.65;100821.94;15783180;28;20044;-53
2023/06/29 15:46:29;;;;;;;4.63;2.60;;;;;;;26.68;42.18;100819.06;15777771;28;20135;-53
2023/06/29 15:54:03;;;;;;;3.83;2.15;;;;;;;27.06;39.90;100807.53;15787980;28;20036;-51
2023/06/29 16:01:36;;;;;;;5.32;2.15;;;;;;;26.15;41.44;100803.31;15781373;28;20044;-50
2023/06/29 16:09:13;;;;;;;4.80;2.30;;;;;;;26.17;41.88;100799.16;15799135;28;20485;-50
2023/06/29 16:16:46;;;;;;;4.25;2.45;;;;;;;26.75;39.27;100788.28;15784987;28;20512;-49
2023/06/29 16:24:20;;;;;;;7.68;2.55;;;;;;;26.78;39.77;100782.97;15798384;28;20044;-47
2023/06/29 16:31:53;;;;;;;3.80;2.42;;;;;;;26.78;38.83;100774.72;15783901;28;20122;-48
2023/06/29 16:39:27;;;;;;;3.30;2.20;;;;;;;26.81;40.92;100764.97;15779978;28;20493;-49
2023/06/29 16:47:02;;;;;;;6.07;2.67;;;;;;;26.64;39.18;100760.25;15782390;28;20047;-51
2023/06/29 16:54:36;;;;;;;4.97;2.05;;;;;;;26.88;39.28;100762.59;15806680;28;20076;-51
2023/06/29 17:02:13;;;;;;;3.97;2.50;;;;;;;26.97;39.43;100760.69;15799132;28;20500;-50
2023/06/29 17:09:53;;;;;;;20.63;8.48;;;;;;;26.88;39.87;100760.66;15791001;28;20097;-47
2023/06/29 17:17:26;;;;;;;90.13;32.88;;;;;;;26.92;45.30;100763.59;15804718;28;20062;-50
2023/06/29 17:25:08;;;;;;;15.07;6.03;;;;;;;26.65;44.31;100745.34;15791717;28;20427;-49
2023/06/29 17:32:41;;;;;;;10.48;5.53;;;;;;;26.59;44.20;100752.13;15790657;28;20372;-59
2023/06/29 17:40:16;;;;;;;126.15;55.45;;;;;;;26.40;44.72;100744.06;15805595;28;20071;-60
2023/06/29 17:47:50;;;;;;;50.30;22.48;;;;;;;26.23;45.22;100741.22;15790098;28;20040;-59
2023/06/29 17:55:24;;;;;;;21.13;9.77;;;;;;;26.17;46.56;100735.84;15810816;28;20118;-60
2023/06/29 18:02:57;;;;;;;81.63;37.15;;;;;;;26.14;46.50;100735.66;15776079;28;20138;-58
2023/06/29 18:10:32;;;;;;;29.00;13.55;;;;;;;26.01;46.28;100729.13;15789438;28;20059;-59
2023/06/29 18:18:05;;;;;;;20.45;10.55;;;;;;;25.93;46.82;100724.41;15806442;28;20048;-58
2023/06/29 18:25:39;;;;;;;9.00;3.60;;;;;;;25.84;46.94;100731.78;15780859;28;20047;-60
2023/06/29 18:33:12;;;;;;;9.70;5.55;;;;;;;25.67;48.73;100721.41;15801238;28;20047;-59
2023/06/29 18:40:47;;;;;;;5.35;3.60;;;;;;;25.57;48.62;100713.41;15751905;28;20139;-59
2023/06/29 18:48:20;;;;;;;6.68;3.50;;;;;;;25.48;48.72;100704.28;15776064;28;20447;-58
2023/06/29 18:55:55;;;;;;;9.38;5.07;;;;;;;25.33;48.47;100695.28;15786916;28;20059;-58
2023/06/29 19:03:28;;;;;;;7.53;4.18;;;;;;;25.27;50.27;100717.69;15778188;28;20032;-59
2023/06/29 19:11:03;;;;;;;24.48;7.47;;;;;;;25.17;50.00;100713.22;15785202;28;20508;-60
2023/06/29 19:18:36;;;;;;;8.20;4.75;;;;;;;24.94;51.97;100713.13;15800417;28;20509;-58
2023/06/29 19:26:10;;;;;;;8.23;4.50;;;;;;;24.82;52.79;100715.59;15797529;28;20043;-59
2023/06/29 19:33:44;;;;;;;6.10;4.15;;;;;;;24.69;53.17;100719.97;15797740;28;20058;-57
2023/06/29 19:41:18;;;;;;;7.47;4.00;;;;;;;24.53;54.88;100731.53;15800785;28;20052;-61
2023/06/29 19:48:54;;;;;;;7.55;4.32;;;;;;;24.38;56.95;100738.94;15787100;28;20475;-59
2023/06/29 19:56:29;;;;;;;5.05;3.85;;;;;;;24.10;57.75;100716.13;15778180;28;20390;-59
2023/06/29 20:04:01;;;;;;;7.95;3.85;;;;;;;24.19;56.00;100736.25;15778015;28;20090;-60
2023/06/29 20:11:36;;;;;;;10.88;8.73;;;;;;;24.01;56.74;100736.31;15778531;28;20047;-59
2023/06/29 20:19:09;;;;;;;11.32;8.70;;;;;;;24.01;55.43;100742.59;15798193;28;20044;-59
2023/06/29 20:26:44;;;;;;;7.70;4.90;;;;;;;23.57;56.74;100710.94;15760371;28;20142;-58
2023/06/29 20:34:17;;;;;;;7.75;4.45;;;;;;;23.61;59.29;100744.06;15781354;28;20348;-58
2023/06/29 20:41:51;;;;;;;11.20;9.85;;;;;;;23.46;58.23;100736.88;15753316;28;20075;-60
2023/06/29 20:49:25;;;;;;;7.13;4.90;;;;;;;23.25;59.36;100736.34;15795915;28;20051;-58
2023/06/29 20:56:59;;;;;;;6.95;4.60;;;;;;;23.16;57.90;100736.19;15778955;28;20101;-56
2023/06/29 21:04:32;;;;;;;8.13;5.05;;;;;;;22.90;59.78;100735.72;15792020;28;20048;-58
2023/06/29 21:12:08;;;;;;;8.93;5.70;;;;;;;23.00;60.22;100728.47;15777588;28;20039;-60
2023/06/29 21:19:42;;;;;;;6.80;5.47;;;;;;;22.92;60.97;100738.97;15781446;28;20286;-59
2023/06/29 21:27:17;;;;;;;6.65;5.10;;;;;;;22.32;61.91;100738.50;15764181;28;20051;-59
2023/06/29 21:34:52;;;;;;;10.25;5.90;;;;;;;22.81;58.66;100725.69;15796406;28;20032;-57
2023/06/29 21:42:26;;;;;;;6.55;5.22;;;;;;;22.60;59.80;100687.59;15791203;28;20055;-60
2023/06/29 21:49:59;;;;;;;7.53;5.75;;;;;;;22.71;60.99;100723.03;15776258;28;20044;-60
2023/06/29 21:57:33;;;;;;;8.23;6.05;;;;;;;22.59;61.30;100728.94;15769960;28;20070;-61
2023/06/29 22:05:06;;;;;;;9.10;6.38;;;;;;;22.34;61.26;100724.56;15788411;28;20480;-60
2023/06/29 22:12:42;;;;;;;7.95;5.57;;;;;;;22.23;61.78;100726.56;15770753;28;20416;-59
2023/06/29 22:20:17;;;;;;;12.00;6.22;;;;;;;22.12;62.42;100727.78;15783098;28;20062;-61
2023/06/29 22:27:53;;;;;;;9.70;6.28;;;;;;;21.97;62.39;100725.16;15773372;28;20459;-59
2023/06/29 22:35:25;;;;;;;9.60;6.00;;;;;;;22.30;60.62;100734.44;15785185;28;20087;-59
2023/06/29 22:42:59;;;;;;;9.32;6.50;;;;;;;22.46;60.22;100732.34;15803684;28;20453;-60
2023/06/29 22:50:32;;;;;;;9.35;6.30;;;;;;;22.41;60.64;100723.09;15794122;28;20075;-61
2023/06/29 22:58:10;;;;;;;10.23;6.63;;;;;;;22.32;61.04;100693.94;15803408;28;20067;-61
2023/06/29 23:05:43;;;;;;;12.73;6.97;;;;;;;22.40;61.66;100720.66;15784993;28;20135;-61
2023/06/29 23:13:17;;;;;;;9.57;6.50;;;;;;;22.50;61.66;100726.03;15795450;28;20042;-59
2023/06/29 23:20:50;;;;;;;8.82;6.57;;;;;;;22.45;61.55;100723.34;15784335;28;20419;-59
2023/06/29 23:28:24;;;;;;;8.40;6.57;;;;;;;22.56;61.13;100715.81;15800842;28;20054;-57
2023/06/29 23:35:57;;;;;;;13.80;6.80;;;;;;;21.86;62.37;100729.88;15782433;28;20040;-61
2023/06/29 23:43:31;;;;;;;14.63;7.10;;;;;;;22.02;61.90;100725.09;15767914;28;20396;-61
2023/06/29 23:51:05;;;;;;;10.98;7.45;;;;;;;22.01;62.99;100728.91;15808325;28;20135;-62
2023/06/29 23:58:39;;;;;;;8.45;7.03;;;;;;;21.95;63.87;100725.41;15767784;28;20523;-59
